Historique des mesures à Cassis (13260), France
Quotidien Résumé Mai 28, 2021 Unités:  Métrique/US    US   Métrique
Quotidien Hebdomadaire Mensuel Annuel
  Maximum: Minimum: Moyenne:
Température: 94.3 °F /  34.6 °C 68.5 °F /  20.3 °C 79.7 °F /  26.5 °C
Point de rosée: 64 °F /  17.8 °C 55.2 °F /  12.9 °C 59.7 °F /  15.4 °C
Humidité: 68% 35% 52%
Vitesse du vent: 6.7mph /  10.8km/h - 2mph /  3.2km/h
Rafales: 13.2mph /  21.2km/h - -
Vent- - SW
Pression: 29.9 in /  1011.4 hPa 29.8 in /  1009.7 hPa -
Précipitations: 0 in /  0.0 mm    
Historical Graphs
 
 
Mesures pour : Mai 28, 2021
Heure Temperature Point de rosée Pression Vent Vitesse du vent Rafales Humidité Pluie (par heure)
00:11 71.4 °F /  21.9 °C 55.9 °F /  13.3 °C 29.9in /  1010.9hPa NW 2mph /  3.2km/h 2.5mph /  4km/h 58% 0in /  0.0mm
01:11 70.2 °F /  21.2 °C 55.2 °F /  12.9 °C 29.9in /  1011.2hPa NW 1.8mph /  2.9km/h 1.8mph /  2.9km/h 59% 0in /  0.0mm
02:11 69.1 °F /  20.6 °C 56.8 °F /  13.8 °C 29.9in /  1011.4hPa NW 2.5mph /  4km/h 4mph /  6.5km/h 65% 0in /  0.0mm
03:11 68.5 °F /  20.3 °C 57.6 °F /  14.2 °C 29.9in /  1011.0hPa WNW 2.5mph /  4km/h 3.6mph /  5.8km/h 68% 0in /  0.0mm
04:11 69.1 °F /  20.6 °C 57.2 °F /  14 °C 29.8in /  1010.4hPa NNW 3.4mph /  5.4km/h 5.2mph /  8.3km/h 66% 0in /  0.0mm
05:11 69.4 °F /  20.8 °C 57.2 °F /  14 °C 29.8in /  1010.1hPa NW 3.4mph /  5.4km/h 3.8mph /  6.1km/h 65% 0in /  0.0mm
06:11 68.5 °F /  20.3 °C 56.3 °F /  13.5 °C 29.8in /  1010.0hPa Calm   2.5mph /  4km/h 65% 0in /  0.0mm
07:11 71.4 °F /  21.9 °C 56.8 °F /  13.8 °C 29.8in /  1010.0hPa Calm   2.2mph /  3.6km/h 60% 0in /  0.0mm
08:10 94.3 °F /  34.6 °C 62.2 °F /  16.8 °C 29.8in /  1009.9hPa Calm   1.4mph /  2.2km/h 35% 0in /  0.0mm
09:11 83.5 °F /  28.6 °C 57.4 °F /  14.1 °C 29.8in /  1009.7hPa SE 1.1mph /  1.8km/h 2.5mph /  4km/h 41% 0in /  0.0mm
10:10 83.5 °F /  28.6 °C 55.9 °F /  13.3 °C 29.8in /  1010.1hPa SSW 1.6mph /  2.5km/h 6mph /  9.7km/h 39% 0in /  0.0mm
11:11 88.2 °F /  31.2 °C 59.4 °F /  15.2 °C 29.8in /  1010.3hPa South 5.8mph /  9.4km/h 5.8mph /  9.4km/h 38% 0in /  0.0mm
12:10 88.5 °F /  31.4 °C 59.5 °F /  15.3 °C 29.8in /  1010.3hPa ESE 0.9mph /  1.4km/h 6.7mph /  10.8km/h 38% 0in /  0.0mm
13:11 88.5 °F /  31.4 °C 61.9 °F /  16.6 °C 29.8in /  1010.4hPa SSW 4mph /  6.5km/h 11.4mph /  18.4km/h 41% 0in /  0.0mm
14:11 88.3 °F /  31.3 °C 62.2 °F /  16.8 °C 29.8in /  1010.3hPa SE 5.3mph /  8.6km/h 11.6mph /  18.7km/h 42% 0in /  0.0mm
15:11 87.8 °F /  31 °C 63.1 °F /  17.3 °C 29.8in /  1010.7hPa Calm   11.6mph /  18.7km/h 44% 0in /  0.0mm
16:11 86.7 °F /  30.4 °C 64 °F /  17.8 °C 29.9in /  1010.8hPa SSW 6.7mph /  10.8km/h 13.2mph /  21.2km/h 47% 0in /  0.0mm
17:11 86.2 °F /  30.1 °C 63 °F /  17.2 °C 29.9in /  1010.8hPa SSE 3.8mph /  6.1km/h 3.8mph /  6.1km/h 46% 0in /  0.0mm
18:11 85.8 °F /  29.9 °C 63.3 °F /  17.4 °C 29.8in /  1010.2hPa SE 2.9mph /  4.7km/h 6.3mph /  10.1km/h 47% 0in /  0.0mm
19:11 84 °F /  28.9 °C 62.2 °F /  16.8 °C 29.8in /  1009.7hPa Calm   2.9mph /  4.7km/h 48% 0in /  0.0mm
20:11 82.2 °F /  27.9 °C 62.8 °F /  17.1 °C 29.8in /  1009.9hPa Calm   2mph /  3.2km/h 52% 0in /  0.0mm
21:11 77.9 °F /  25.5 °C 63 °F /  17.2 °C 29.8in /  1010.0hPa Calm   2.5mph /  4km/h 60% 0in /  0.0mm
22:11 75.6 °F /  24.2 °C 59.7 °F /  15.4 °C 29.8in /  1010.3hPa Calm   0.9mph /  1.4km/h 58% 0in /  0.0mm
23:11 73.8 °F /  23.2 °C 58.5 °F /  14.7 °C 29.9in /  1010.8hPa Calm   4.5mph /  7.2km/h 59% 0in /  0.0mm
Observations météo à CASSIS
WU-History script by Weather Underground - 2 mb